Latest Weather Observations for Cape Byron

IDN60801

Issued at 7:53 pm EDT Monday 5 December 2022 (issued every 10 minutes, with the page automatically refreshed every 10 minutes)

About weather observations | Map of weather stations | Latest weather observations for NSW | Other Formats
Station Details ID: 058216 Name: CAPE BYRON AWS Lat: -28.64 Lon: 153.64 Height: 95.0 m
Data from the previous 72 hours. | See also: Recent months at Cape Byron
Date/Time
EDT
Temp
°C
App
Temp
°C
Dew
Point
°C
Rel
Hum
%
Delta-T
°C
Wind Press
QNH
hPa
Press
MSL
hPa
Rain since
9am
mm
Dir  Spd
km/h
Gust
km/h
Spd
kts
Gust
kts
05/07:30pm 22.4 23.8 18.6 79 2.4 ENE 9 15 5 8 1008.3 1007.8 0.2
05/07:00pm 23.5 24.7 19.0 76 2.9 E 11 17 6 9 1008.1 1007.6 0.2
05/06:30pm 24.6 25.1 19.2 72 3.5 E 15 20 8 11 1007.8 1007.3 0.2
05/06:00pm 24.6 24.4 18.5 69 3.9 E 17 22 9 12 1007.7 1007.2 0.2
05/05:30pm 25.9 25.9 19.8 69 4.0 E 19 26 10 14 1007.5 1007.0 0.2
05/05:00pm 26.1 26.1 20.2 70 3.9 E 20 28 11 15 1007.4 1006.9 0.2
05/04:30pm 25.7 25.0 19.6 69 4.0 E 22 28 12 15 1007.6 1007.1 0.2
05/04:00pm 25.1 23.5 19.2 70 3.8 E 26 32 14 17 1007.7 1007.2 0.2
05/03:30pm 25.8 25.0 20.1 71 3.7 E 24 30 13 16 1007.9 1007.4 0.2
05/03:00pm 24.4 23.3 18.6 70 3.7 ESE 22 26 12 14 1008.4 1007.9 0.2
05/02:30pm 24.1 22.9 18.5 71 3.6 ESE 22 28 12 15 1008.8 1008.3 0.2
05/02:00pm 23.9 23.0 18.3 71 3.5 SE 20 28 11 15 1009.4 1008.9 0.2
05/01:30pm 24.1 23.2 18.3 70 3.7 SE 20 28 11 15 1009.8 1009.3 0.2
05/01:00pm 23.8 22.9 18.2 71 3.5 SE 20 26 11 14 1010.2 1009.7 0.2
05/12:30pm 23.6 22.7 17.8 70 3.6 SSE 19 24 10 13 1010.5 1010.0 0.2
05/12:00pm 23.1 22.1 17.6 71 3.4 SSE 19 26 10 14 1010.9 1010.4 0.2
05/11:30am 23.0 21.3 17.2 70 3.6 SSE 22 26 12 14 1011.2 1010.7 0.2
05/11:00am 22.7 21.1 17.4 72 3.3 S 22 26 12 14 1011.4 1010.9 0.2
05/10:30am 22.4 21.4 18.0 76 2.8 S 20 24 11 13 1011.7 1011.2 0.0
05/10:00am 22.0 20.7 18.2 79 2.4 SSW 22 30 12 16 1012.0 1011.5 0.0
05/09:30am 21.6 19.8 17.8 79 2.4 SSW 24 32 13 17 1012.0 1011.5 0.0
05/09:00am 20.7 19.1 17.5 82 2.0 SW 22 28 12 15 1011.9 1011.4 9.0
05/08:30am 19.6 17.4 17.0 85 1.6 SW 24 32 13 17 1012.0 1011.5 9.0
05/08:00am 19.0 17.1 16.8 87 1.3 SW 22 30 12 16 1011.9 1011.4 9.0
05/07:30am 17.9 15.6 16.6 92 0.8 SW 24 33 13 18 1011.6 1011.1 9.0
05/07:00am 17.2 13.9 16.1 93 0.7 SW 28 35 15 19 1011.2 1010.7 9.0
05/06:30am 16.7 13.3 15.7 94 0.6 SW 28 33 15 18 1011.1 1010.6 9.0
05/06:00am 16.7 14.0 15.7 94 0.6 WSW 24 32 13 17 1011.1 1010.6 9.0
05/05:30am 16.7 13.6 15.7 94 0.6 WSW 26 32 14 17 1010.9 1010.4 9.0
05/05:00am 16.7 13.7 15.9 95 0.5 SW 26 33 14 18 1010.8 1010.3 9.0
05/04:30am 16.8 13.4 15.8 94 0.6 WSW 28 35 15 19 1011.0 1010.5 9.0
05/04:00am 16.6 14.0 15.8 95 0.5 WSW 24 32 13 17 1011.1 1010.6 9.0
05/03:30am 16.7 14.2 16.1 96 0.4 WSW 24 32 13 17 1011.3 1010.8 9.0
05/03:00am 17.4 15.9 16.8 96 0.4 WSW 20 24 11 13 1011.5 1011.0 9.0
05/02:30am 18.1 17.5 17.5 96 0.4 SSW 17 22 9 12 1011.8 1011.3 9.0
05/02:00am 18.3 17.3 17.5 95 0.5 S 19 26 10 14 1012.4 1012.0 9.0
05/01:30am 18.3 17.2 17.8 97 0.3 SSE 20 26 11 14 1013.0 1012.6 9.0
05/01:00am 18.2 15.9 17.7 97 0.3 SE 26 35 14 19 1013.3 1012.9 8.4
05/12:30am 18.6 16.2 18.3 98 0.2 S 28 35 15 19 1013.7 1013.3 8.0
05/12:00am 17.8 17.2 17.6 99 0.1 SSW 17 22 9 12 1014.0 1013.6 8.0
 
Date/Time
EDT
Temp
°C
App
Temp
°C
Dew
Point
°C
Rel
Hum
%
Delta-T
°C
Wind Press
QNH
hPa
Press
MSL
hPa
Rain since
9am
mm
Dir  Spd
km/h
Gust
km/h
Spd
kts
Gust
kts
04/11:30pm 17.5 16.2 17.2 98 0.2 SSW 20 28 11 15 1014.5 1014.1 8.0
04/11:00pm 17.2 15.4 17.0 99 0.1 SW 22 28 12 15 1014.7 1014.3 7.8
04/10:30pm 17.2 15.0 17.0 99 0.1 SSW 24 30 13 16 1014.9 1014.5 7.8
04/10:00pm 17.4 15.3 17.2 99 0.1 SW 24 32 13 17 1014.9 1014.5 7.8
04/09:30pm 17.5 15.5 17.3 99 0.1 SW 24 37 13 20 1014.6 1014.2 7.8
04/09:00pm 17.4 15.3 17.2 99 0.1 SW 24 32 13 17 1014.5 1014.1 6.6
04/08:30pm 17.5 15.1 17.3 99 0.1 SW 26 35 14 19 1014.3 1013.9 6.0
04/08:00pm 17.2 14.2 16.9 98 0.2 SW 28 35 15 19 1014.2 1013.8 5.6
04/07:30pm 17.2 14.2 16.9 98 0.2 SW 28 37 15 20 1014.1 1013.7 5.6
04/07:00pm 17.8 15.1 17.5 98 0.2 SSW 28 41 15 22 1013.8 1013.4 5.6
04/06:30pm 17.8 14.3 17.5 98 0.2 SSW 32 41 17 22 1013.6 1013.2 5.4
04/06:00pm 18.0 14.5 17.5 97 0.3 SSW 32 46 17 25 1013.3 1012.9 5.4
04/05:30pm 18.1 14.5 17.6 97 0.3 SSW 33 50 18 27 1013.1 1012.7 5.2
04/05:27pm 18.2 15.2 17.7 97 0.3 SSW 30 50 16 27 1013.1 1012.7 5.2
04/05:00pm 18.0 13.5 17.4 96 0.4 S 37 44 20 24 1013.1 1012.7 5.0
04/04:30pm 18.3 14.6 17.5 95 0.5 S 33 39 18 21 1013.2 1012.8 5.0
04/04:00pm 19.2 13.9 16.4 84 1.7 S 39 44 21 24 1013.4 1013.0 5.0
04/03:30pm 19.5 14.6 16.3 82 1.9 S 37 46 20 25 1013.5 1013.1 5.0
04/03:00pm 19.2 13.6 16.6 85 1.6 S 41 50 22 27 1013.7 1013.3 5.0
04/02:30pm 19.4 15.0 16.6 84 1.7 S 35 41 19 22 1013.9 1013.5 5.0
04/02:00pm 20.2 17.2 17.8 86 1.5 S 30 39 16 21 1014.0 1013.6 5.0
04/01:30pm 21.0 18.9 18.0 83 1.9 SE 26 33 14 18 1014.1 1013.7 5.0
04/01:00pm 20.5 17.3 16.3 77 2.5 SE 28 37 15 20 1014.4 1014.0 5.0
04/12:30pm 20.9 16.6 17.7 82 2.0 ESE 37 43 20 23 1014.5 1014.1 4.8
04/12:00pm 20.7 16.2 17.3 81 2.1 ESE 37 46 20 25 1014.6 1014.2 4.8
04/11:30am 19.7 14.4 18.2 91 0.9 ESE 43 50 23 27 1014.6 1014.2 4.8
04/11:01am 19.1 16.5 17.9 93 0.7 SE 28 46 15 25 1015.2 1014.8 3.2
04/11:00am 19.0 16.4 17.7 92 0.8 SE 28 46 15 25 1015.1 1014.7 2.8
04/10:30am 19.4 17.6 17.0 86 1.5 SSW 22 32 12 17 1015.2 1014.8 0.0
04/10:00am 19.5 18.6 17.8 90 1.0 SSW 19 26 10 14 1015.3 1014.9 0.0
04/09:30am 18.5 17.6 17.7 95 0.5 SW 19 24 10 13 1015.3 1014.9 0.0
04/09:00am 17.3 15.8 16.7 96 0.4 SW 20 26 11 14 1015.4 1015.0 5.2
04/08:30am 16.6 14.8 16.0 96 0.4 WSW 20 26 11 14 1015.5 1015.1 5.2
04/08:00am 16.3 14.8 15.3 94 0.6 WSW 17 26 9 14 1015.5 1015.1 4.4
04/07:30am 17.9 16.2 16.2 90 1.0 SSW 20 28 11 15 1015.0 1014.6 3.6
04/07:00am 18.2 14.7 15.6 85 1.5 SE 28 41 15 22 1015.0 1014.6 3.6
04/06:48am 18.6 14.0 16.2 86 1.4 ESE 35 46 19 25 1014.8 1014.4 3.6
04/06:30am 18.0 13.0 16.2 89 1.1 E 37 48 20 26 1014.2 1013.8 3.6
04/06:20am 17.9 16.5 16.6 92 0.8 SSE 19 48 10 26 1014.2 1013.8 3.4
04/06:00am 16.6 14.8 14.4 87 1.3 SW 17 26 9 14 1014.4 1014.0 3.4
04/05:30am 16.9 14.5 14.5 86 1.4 SW 20 26 11 14 1014.2 1013.8 3.4
04/05:00am 16.5 14.1 14.3 87 1.3 SW 20 28 11 15 1014.1 1013.7 3.4
04/04:30am 20.0 16.4 15.2 74 2.8 SSE 28 39 15 21 1013.8 1013.4 3.4
04/04:00am 19.8 15.7 14.8 73 2.9 SE 30 44 16 24 1013.8 1013.4 3.4
04/03:30am 20.0 15.2 14.1 69 3.4 SSE 32 41 17 22 1014.0 1013.6 3.4
04/03:00am 20.1 15.7 14.0 68 3.5 SE 30 41 16 22 1014.2 1013.8 3.4
04/02:30am 20.2 15.9 14.3 69 3.4 SSE 30 39 16 21 1014.4 1014.0 3.4
04/02:00am 20.1 14.3 14.0 68 3.5 SSE 37 46 20 25 1014.6 1014.2 3.4
04/01:30am 20.0 14.4 13.2 65 3.9 SSE 35 44 19 24 1015.0 1014.6 3.4
04/01:00am 20.1 15.1 13.3 65 3.9 SE 32 43 17 23 1015.3 1014.9 3.4
04/12:30am 20.0 15.4 13.5 66 3.7 SE 30 43 16 23 1015.4 1015.0 3.4
04/12:00am 20.0 15.1 13.7 67 3.6 SE 32 41 17 22 1015.6 1015.2 3.4
 
Date/Time
EDT
Temp
°C
App
Temp
°C
Dew
Point
°C
Rel
Hum
%
Delta-T
°C
Wind Press
QNH
hPa
Press
MSL
hPa
Rain since
9am
mm
Dir  Spd
km/h
Gust
km/h
Spd
kts
Gust
kts
03/11:30pm 19.9 14.6 13.1 65 3.9 SE 33 46 18 25 1015.8 1015.4 3.4
03/11:00pm 20.0 14.0 14.4 70 3.3 SE 39 50 21 27 1015.8 1015.4 3.4
03/10:30pm 20.0 13.7 14.6 71 3.2 SE 41 57 22 31 1015.7 1015.3 3.4
03/10:00pm 19.8 12.9 14.4 71 3.1 ESE 44 56 24 30 1015.5 1015.1 3.4
03/09:46pm 19.8 15.8 15.2 75 2.7 SE 30 48 16 26 1015.7 1015.3 3.4
03/09:30pm 19.2 14.8 15.7 80 2.1 SSE 33 50 18 27 1015.4 1015.0 3.4
03/09:27pm 18.9 14.9 16.3 85 1.6 SSE 32 43 17 23 1015.5 1015.1 3.2
03/09:00pm 18.6 12.7 16.8 89 1.1 S 43 52 23 28 1015.4 1015.0 3.2
03/08:30pm 18.1 13.5 17.0 93 0.7 S 37 50 20 27 1015.0 1014.6 3.0
03/08:22pm 17.9 12.3 16.6 92 0.8 S 41 57 22 31 1015.1 1014.7 3.0
03/08:00pm 19.2 14.5 15.9 81 2.0 SSE 35 54 19 29 1014.9 1014.5 1.8
03/07:30pm 20.4 16.0 15.2 72 3.1 SE 32 50 17 27 1014.8 1014.4 1.6
03/07:28pm 20.5 16.2 15.3 72 3.1 SE 32 50 17 27 1014.7 1014.3 1.6
03/07:00pm 20.5 15.0 14.8 70 3.4 SSE 37 48 20 26 1014.5 1014.1 1.6
03/06:30pm 20.4 14.8 14.5 69 3.5 SSE 37 50 20 27 1014.3 1013.9 1.6
03/06:00pm 19.8 16.9 16.1 79 2.2 SE 26 41 14 22 1014.2 1013.8 1.6
03/05:30pm 21.1 18.1 15.9 72 3.1 S 26 33 14 18 1014.3 1013.9 1.4
03/05:00pm 20.6 16.4 15.8 74 2.9 S 32 39 17 21 1014.1 1013.7 1.4
03/04:30pm 17.9 9.8 15.3 85 1.5 S 52 59 28 32 1014.2 1013.8 1.4
03/04:00pm 19.5 13.0 15.6 78 2.3 S 44 56 24 30 1014.0 1013.6 1.4
03/03:30pm 20.9 14.5 15.9 73 3.0 SSE 44 56 24 30 1014.1 1013.7 1.4
03/03:22pm 21.2 15.8 17.0 77 2.6 SSE 41 52 22 28 1014.1 1013.7 1.4
03/03:05pm 21.8 16.9 14.4 63 4.4 SE 33 54 18 29 1014.2 1013.8 1.4
03/03:00pm 21.6 17.0 14.5 64 4.2 SE 32 44 17 24 1014.2 1013.8 1.4
03/02:30pm 22.1 17.2 15.2 65 4.1 SE 35 50 19 27 1014.3 1013.9 1.4
03/02:00pm 22.0 15.9 14.1 61 4.6 SE 39 56 21 30 1014.6 1014.2 1.4
03/01:32pm 21.9 15.5 13.3 58 5.0 SE 39 57 21 31 1014.7 1014.3 1.4
03/01:30pm 21.7 15.3 13.3 59 4.8 SE 39 54 21 29 1014.7 1014.3 1.4
03/01:00pm 21.8 16.9 15.4 67 3.8 SE 35 56 19 30 1015.0 1014.6 1.4
03/12:30pm 21.6 16.5 14.7 65 4.1 SE 35 56 19 30 1015.1 1014.7 1.4
03/12:21pm 21.7 16.6 14.8 65 4.1 SE 35 56 19 30 1015.0 1014.6 1.4
03/12:00pm 21.3 15.4 14.7 66 3.9 SE 39 52 21 28 1015.1 1014.7 1.4
03/11:30am 19.8 13.6 14.8 73 2.9 SE 41 56 22 30 1015.0 1014.6 1.4
03/11:25am 19.3 16.0 16.0 81 2.0 SSE 28 54 15 29 1015.2 1014.8 1.4
03/11:00am 17.4 13.9 16.4 94 0.6 S 30 41 16 22 1015.3 1014.9 1.2
03/10:55am 17.2 13.2 16.1 93 0.7 S 32 43 17 23 1015.3 1014.9 1.2
03/10:30am 18.6 12.4 16.0 85 1.6 SSE 43 57 23 31 1015.4 1015.0 0.0
03/10:15am 17.4 9.4 15.7 90 1.0 SSE 52 65 28 35 1015.2 1014.8 0.0
03/10:01am 21.0 16.4 15.1 69 3.5 SE 33 54 18 29 1014.8 1014.4 0.0
03/10:00am 20.9 16.2 14.8 68 3.6 SE 33 46 18 25 1014.9 1014.5 0.0
03/09:46am 21.9 16.9 15.0 65 4.1 SE 35 54 19 29 1014.8 1014.4 0.0
03/09:30am 21.6 16.3 15.4 68 3.7 SE 37 52 20 28 1014.7 1014.3 0.0
03/09:09am 21.1 14.8 14.7 67 3.8 SE 41 59 22 32 1014.7 1014.3 0.0
03/09:00am 21.1 14.6 15.2 69 3.5 SE 43 56 23 30 1014.5 1014.1 8.0
03/08:45am 20.9 15.1 15.0 69 3.5 SE 39 59 21 32 1014.3 1013.9 8.0
03/08:30am 20.0 14.8 14.6 71 3.2 SE 35 50 19 27 1014.4 1014.0 8.0
03/08:09am 19.7 15.5 16.3 81 2.0 SE 33 54 18 29 1014.4 1014.0 8.0
03/08:08am 19.7 15.8 16.5 82 1.9 SE 32 48 17 26 1014.4 1014.0 8.0
03/08:00am 17.3 15.7 16.5 95 0.5 S 20 30 11 16 1014.6 1014.2 8.0
03/07:30am 16.1 14.0 15.3 95 0.5 WSW 20 28 11 15 1014.0 1013.6 7.8
03/07:16am 16.6 11.8 15.6 94 0.6 S 35 54 19 29 1014.2 1013.8 7.8
03/07:03am 16.9 13.9 15.9 94 0.6 SSW 26 48 14 26 1014.3 1013.9 7.0
03/07:00am 16.5 13.6 15.0 91 0.9 S 24 44 13 24 1014.0 1013.6 6.8
03/06:43am 18.1 13.8 16.8 92 0.8 SSE 35 59 19 32 1013.3 1012.9 6.8
03/06:42am 18.1 14.1 16.8 92 0.8 SSE 33 50 18 27 1013.4 1013.0 6.8
03/06:30am 16.3 13.2 15.7 96 0.4 SSW 26 41 14 22 1013.6 1013.2 6.8
03/06:00am 15.6 12.2 14.8 95 0.5 SW 26 33 14 18 1013.1 1012.7 6.6
03/05:48am 16.2 11.2 15.1 93 0.6 S 35 48 19 26 1013.2 1012.8 6.4
03/05:38am 16.3 12.1 15.7 96 0.4 SW 32 54 17 29 1013.2 1012.8 6.2
03/05:33am 15.5 11.6 14.5 94 0.6 WSW 28 46 15 25 1012.9 1012.5 5.6
03/05:30am 15.5 11.6 14.4 93 0.6 WSW 28 33 15 18 1013.0 1012.6 5.0
03/05:00am 16.1 12.9 14.3 89 1.0 SW 24 33 13 18 1012.9 1012.5 5.0
03/04:51am 17.6 11.3 13.5 77 2.3 S 39 54 21 29 1012.9 1012.5 5.0
03/04:30am 19.1 12.4 15.0 77 2.4 S 44 57 24 31 1012.6 1012.2 5.0
03/04:09am 18.1 13.3 15.7 86 1.4 S 35 52 19 28 1012.7 1012.3 5.0
03/04:00am 16.4 12.8 15.3 93 0.6 SSW 28 35 15 19 1012.8 1012.4 5.0
03/03:41am 16.8 12.7 16.0 95 0.5 SSW 32 50 17 27 1012.6 1012.2 5.0
03/03:30am 16.4 12.4 15.3 93 0.6 SSW 30 50 16 27 1012.7 1012.3 4.8
03/03:23am 16.9 11.4 15.8 93 0.6 S 39 50 21 27 1012.8 1012.4 4.0
03/03:07am 17.1 9.4 15.4 90 1.0 S 50 74 27 40 1012.6 1012.2 3.2
03/03:02am 18.6 12.2 15.3 81 1.9 S 43 70 23 38 1012.5 1012.1 2.6
03/03:01am 19.2 13.1 15.3 78 2.3 S 41 69 22 37 1012.6 1012.2 2.6
03/03:00am 19.4 13.8 15.5 78 2.3 S 39 54 21 29 1012.6 1012.2 2.6
03/02:55am 19.6 13.0 14.8 74 2.8 SSE 43 54 23 29 1012.6 1012.2 2.6
03/02:45am 19.9 14.8 14.9 73 2.9 SE 35 54 19 29 1012.7 1012.3 2.6
03/02:30am 20.1 14.4 14.2 69 3.4 SSE 37 52 20 28 1012.6 1012.2 2.6
03/02:00am 20.2 14.3 13.6 66 3.8 SSE 37 48 20 26 1012.7 1012.3 2.6
03/01:30am 20.1 14.0 14.0 68 3.5 SSE 39 52 21 28 1013.0 1012.6 2.6
03/01:00am 20.1 13.9 13.8 67 3.6 SSE 39 50 21 27 1013.2 1012.8 2.6
03/12:37am 20.1 13.7 13.1 64 4.0 SSE 39 57 21 31 1013.3 1012.9 2.6
03/12:30am 20.0 13.9 14.1 69 3.4 SSE 39 50 21 27 1013.4 1013.0 2.6
03/12:07am 19.9 13.3 14.9 73 2.9 SSE 43 61 23 33 1013.6 1013.2 2.6
03/12:00am 20.2 13.1 13.9 67 3.6 SSE 44 56 24 30 1013.6 1013.2 2.6
 
Date/Time
EDT
Temp
°C
App
Temp
°C
Dew
Point
°C
Rel
Hum
%
Delta-T
°C
Wind Press
QNH
hPa
Press
MSL
hPa
Rain since
9am
mm
Dir  Spd
km/h
Gust
km/h
Spd
kts
Gust
kts
02/11:30pm 20.2 12.8 12.9 63 4.2 SSE 44 61 24 33 1013.8 1013.4 2.6
02/11:00pm 20.3 12.2 13.3 64 4.0 SSE 48 59 26 32 1013.7 1013.3 2.6
02/10:30pm 20.3 12.1 14.2 68 3.6 SSE 50 59 27 32 1013.5 1013.1 2.6
02/10:07pm 20.3 12.7 14.7 70 3.3 SSE 48 67 26 36 1013.2 1012.8 2.6
02/10:00pm 20.3 11.9 14.7 70 3.3 SSE 52 67 28 36 1013.2 1012.8 2.6
02/09:42pm 19.7 11.4 14.9 74 2.8 SSE 52 70 28 38 1012.9 1012.5 2.6
02/09:30pm 20.2 11.2 13.9 67 3.6 SSE 54 65 29 35 1012.9 1012.5 2.6
02/09:00pm 19.4 11.9 16.1 81 2.0 SSE 50 63 27 34 1012.6 1012.2 2.6
02/08:30pm 19.0 11.2 15.3 79 2.2 SE 50 69 27 37 1012.3 1011.9 2.4
02/08:28pm 19.2 11.4 15.3 78 2.3 SSE 50 69 27 37 1012.3 1011.9 2.2
02/08:00pm 20.1 10.8 14.7 71 3.2 SSE 57 69 31 37 1011.9 1011.4 2.2

Other formats

Comma delimited format used in spreadsheet applications
http://www.bom.gov.au/fwo/IDN60801/IDN60801.94599.axf

JavaScript Object Notation format (JSON) in row-major order
http://www.bom.gov.au/fwo/IDN60801/IDN60801.94599.json

Data quality

Most of these data are generated automatically and are frequently updated. Quality checks on data are not normally performed. It is possible for incorrect values to appear. Refer to information at About Latest Weather Observations and please check the disclaimer before using these data.